Time;durP1;ratioP1;P1;durP2;ratioP2;P2;SDS_P1;SDS_P2;PMS_P1;PMS_P2;Temp;Humidity;BMP_temperature;BMP_pressure;BME280_temperature;BME280_humidity;BME280_pressure;Samples;Min_cycle;Max_cycle;Signal;HPM_P1;HPM_P2
2022/08/04 00:08:59;;;;;;;7.73;3.27;;;23.70;67.50;;;;;;20990284;28;20227;-72
2022/08/04 00:19:16;;;;;;;5.17;3.47;;;23.60;68.00;;;;;;21002285;28;20246;-72
2022/08/04 00:29:21;;;;;;;6.10;3.40;;;23.50;68.40;;;;;;21003372;28;20291;-71
2022/08/04 00:39:23;;;;;;;3.43;2.90;;;23.40;69.00;;;;;;20996688;28;20290;-71
2022/08/04 00:49:28;;;;;;;3.63;2.93;;;23.20;69.40;;;;;;20995749;28;20265;-72
2022/08/04 00:59:54;;;;;;;5.50;3.30;;;23.10;70.20;;;;;;20995846;28;20679;-72
2022/08/04 01:10:34;;;;;;;5.70;3.10;;;23.00;71.10;;;;;;20995384;28;20211;-72
2022/08/04 01:20:48;;;;;;;4.90;3.10;;;22.80;71.90;;;;;;20942508;28;20231;-72
2022/08/04 01:30:56;;;;;;;4.63;2.90;;;22.70;72.30;;;;;;20994959;28;20703;-72
2022/08/04 01:41:04;;;;;;;3.77;2.83;;;22.40;72.80;;;;;;21003955;28;20321;-72
2022/08/04 01:51:08;;;;;;;6.30;3.10;;;22.40;73.50;;;;;;21009273;28;20750;-72
2022/08/04 02:01:11;;;;;;;3.90;3.50;;;22.30;73.90;;;;;;21009123;28;20601;-73
2022/08/04 02:11:20;;;;;;;5.87;3.40;;;22.20;74.20;;;;;;21008004;28;20207;-72
2022/08/04 02:21:24;;;;;;;3.90;3.50;;;22.20;74.40;;;;;;20989418;28;20762;-72
2022/08/04 02:31:56;;;;;;;6.00;3.53;;;22.10;75.80;;;;;;21006484;28;20211;-72
2022/08/04 02:41:58;;;;;;;3.43;3.13;;;22.00;75.50;;;;;;21005411;28;20706;-72
2022/08/04 02:52:01;;;;;;;3.37;3.07;;;21.80;76.20;;;;;;21003661;28;20235;-72
2022/08/04 03:02:03;;;;;;;7.97;3.17;;;21.70;76.70;;;;;;20986248;28;20618;-72
2022/08/04 03:12:34;;;;;;;8.13;3.20;;;21.60;77.30;;;;;;21003285;28;20206;-71
2022/08/04 03:22:45;;;;;;;4.30;3.30;;;21.60;77.70;;;;;;21002206;28;20232;-72
2022/08/04 03:33:39;;;;;;;6.20;3.87;;;21.50;78.20;;;;;;21001555;28;20211;-72
2022/08/04 03:44:05;;;;;;;4.87;4.37;;;21.40;78.50;;;;;;21000843;28;20284;-72
2022/08/04 03:54:16;;;;;;;4.30;3.90;;;21.40;79.10;;;;;;20999457;28;20301;-71
2022/08/04 04:04:32;;;;;;;8.00;4.00;;;21.20;78.90;;;;;;20998262;28;20260;-72
2022/08/04 04:15:07;;;;;;;10.00;3.80;;;21.20;79.60;;;;;;20998836;28;20771;-70
2022/08/04 04:25:41;;;;;;;7.00;3.70;;;21.10;80.00;;;;;;20998570;28;20241;-71
2022/08/04 04:36:07;;;;;;;4.60;3.80;;;21.10;80.30;;;;;;20998580;28;20210;-71
2022/08/04 04:46:25;;;;;;;8.07;3.80;;;21.10;80.40;;;;;;20996741;28;20247;-71
2022/08/04 04:56:39;;;;;;;6.50;4.30;;;21.10;80.80;;;;;;20977670;28;20206;-71
2022/08/04 05:06:49;;;;;;;12.00;4.20;;;21.20;81.00;;;;;;20998641;28;20248;-72
2022/08/04 05:17:25;;;;;;;13.27;5.10;;;21.20;81.10;;;;;;21010244;28;20206;-74
2022/08/04 05:27:40;;;;;;;22.33;6.33;;;21.30;81.30;;;;;;21011449;28;20725;-74
2022/08/04 05:37:44;;;;;;;31.70;6.07;;;21.50;81.20;;;;;;21010428;28;20294;-75
2022/08/04 05:47:46;;;;;;;26.20;5.47;;;21.70;81.00;;;;;;21009473;28;20238;-75
2022/08/04 05:57:50;;;;;;;30.33;7.20;;;22.00;80.70;;;;;;21007360;28;20207;-75
2022/08/04 06:07:56;;;;;;;22.10;7.50;;;22.40;79.30;;;;;;21008162;28;20642;-76
2022/08/04 06:18:16;;;;;;;15.60;5.50;;;22.40;79.80;;;;;;20991940;28;20293;-72
2022/08/04 06:28:41;;;;;;;24.60;5.50;;;22.70;79.00;;;;;;21004528;28;20360;-76
2022/08/04 06:38:44;;;;;;;16.23;4.03;;;22.80;78.60;;;;;;21004181;28;20206;-75
2022/08/04 06:48:46;;;;;;;11.07;3.63;;;23.10;77.20;;;;;;21002966;28;20288;-75
2022/08/04 06:58:51;;;;;;;21.13;4.23;;;23.30;75.90;;;;;;20985620;28;20214;-75
2022/08/04 07:08:55;;;;;;;29.83;4.53;;;23.70;74.80;;;;;;21001842;28;20254;-77
2022/08/04 07:18:57;;;;;;;5.67;3.00;;;24.00;73.60;;;;;;21001061;28;20209;-75
2022/08/04 07:29:11;;;;;;;9.83;3.33;;;24.40;72.30;;;;;;20999499;28;20854;-76
2022/08/04 07:39:13;;;;;;;4.70;3.30;;;24.70;71.00;;;;;;20999606;28;20678;-76
2022/08/04 07:49:30;;;;;;;10.73;3.10;;;25.10;69.60;;;;;;20999149;28;20247;-77
2022/08/04 07:59:51;;;;;;;7.27;2.60;;;25.40;67.70;;;;;;20999202;28;20211;-77
2022/08/04 08:09:53;;;;;;;8.30;2.90;;;25.80;66.30;;;;;;20996483;28;20237;-77
2022/08/04 08:19:55;;;;;;;7.27;2.60;;;26.20;65.10;;;;;;20996779;28;20207;-78
2022/08/04 08:29:57;;;;;;;5.40;2.90;;;26.60;63.90;;;;;;20995508;28;20230;-75
2022/08/04 08:40:22;;;;;;;4.37;3.37;;;27.00;62.00;;;;;;20995468;28;20207;-78
2022/08/04 08:50:52;;;;;;;6.63;2.40;;;27.40;61.00;;;;;;20994264;28;20326;-77
2022/08/04 09:01:12;;;;;;;3.27;2.70;;;27.70;59.70;;;;;;20994553;28;20693;-75
2022/08/04 09:11:19;;;;;;;5.05;2.75;;;28.10;58.60;;;;;;20994536;28;20261;-76
2022/08/04 09:21:47;;;;;;;2.90;2.53;;;28.40;57.50;;;;;;20993413;28;20253;-77
2022/08/04 09:32:10;;;;;;;8.13;2.90;;;28.70;56.50;;;;;;20993448;28;20225;-77
2022/08/04 09:42:31;;;;;;;9.45;2.80;;;29.10;55.60;;;;;;20992491;28;20234;-77
2022/08/04 09:52:43;;;;;;;2.05;1.83;;;29.40;54.00;;;;;;20997659;28;20322;-74
2022/08/04 10:02:59;;;;;;;2.00;1.80;;;29.70;52.20;;;;;;21002301;28;20245;-73
2022/08/04 10:13:20;;;;;;;3.85;1.50;;;30.00;50.10;;;;;;21006726;28;20214;-75
2022/08/04 10:23:59;;;;;;;3.50;1.98;;;30.40;48.20;;;;;;21005673;28;20326;-73
2022/08/04 10:34:12;;;;;;;5.25;1.70;;;30.60;46.50;;;;;;21004630;28;20210;-72
2022/08/04 10:44:47;;;;;;;3.08;1.70;;;30.90;45.40;;;;;;21004547;28;20243;-75
2022/08/04 10:55:12;;;;;;;5.25;2.90;;;31.00;44.80;;;;;;21003263;28;20235;-72
2022/08/04 11:05:27;;;;;;;4.90;2.00;;;31.20;44.40;;;;;;21003250;28;20322;-74
2022/08/04 11:15:37;;;;;;;1.77;1.60;;;31.30;44.20;;;;;;21001374;28;20211;-76
2022/08/04 11:25:55;;;;;;;1.88;1.60;;;31.50;43.70;;;;;;21000975;28;20596;-74
2022/08/04 11:36:20;;;;;;;3.60;1.52;;;31.70;43.20;;;;;;20999268;28;20212;-74
2022/08/04 11:46:26;;;;;;;2.42;1.90;;;31.70;43.00;;;;;;20998756;28;20234;-75
2022/08/04 11:56:30;;;;;;;3.30;1.70;;;32.00;42.50;;;;;;20999051;28;20218;-74
2022/08/04 12:06:59;;;;;;;1.90;1.70;;;32.30;42.10;;;;;;21009654;28;20238;-75
2022/08/04 12:17:28;;;;;;;1.75;1.65;;;32.50;41.70;;;;;;21012927;28;20233;-77
2022/08/04 12:28:05;;;;;;;3.33;1.50;;;32.60;41.00;;;;;;20999299;28;20227;-76
2022/08/04 12:38:11;;;;;;;4.25;1.33;;;32.50;41.50;;;;;;20998170;28;20203;-74
2022/08/04 12:48:12;;;;;;;6.15;1.70;;;33.00;40.00;;;;;;20994888;28;20251;-71
2022/08/04 12:58:24;;;;;;;2.55;1.63;;;33.20;38.90;;;;;;20994327;28;20653;-71
2022/08/04 13:08:45;;;;;;;4.32;1.73;;;33.60;37.90;;;;;;20998567;28;20314;-71
2022/08/04 13:18:49;;;;;;;2.67;1.50;;;33.50;37.80;;;;;;20993835;28;20200;-71
2022/08/04 13:28:52;;;;;;;1.92;1.50;;;33.30;38.00;;;;;;20993576;28;20238;-76
2022/08/04 13:38:57;;;;;;;1.70;1.60;;;33.30;38.20;;;;;;21007755;28;20218;-73
2022/08/04 13:49:02;;;;;;;2.17;1.73;;;33.30;38.20;;;;;;21008845;28;20273;-75
2022/08/04 13:59:31;;;;;;;5.07;1.70;;;33.40;37.70;;;;;;21008589;28;20648;-73
2022/08/04 14:09:33;;;;;;;2.22;1.73;;;33.70;37.60;;;;;;21006649;28;20227;-74
2022/08/04 14:19:45;;;;;;;3.33;1.40;;;33.50;37.40;;;;;;21009878;28;20203;-75
2022/08/04 14:29:48;;;;;;;2.33;1.85;;;33.40;37.20;;;;;;21023372;28;20242;-74
2022/08/04 14:39:53;;;;;;;2.88;1.70;;;33.70;36.80;;;;;;21031346;28;20227;-71
2022/08/04 14:50:12;;;;;;;2.10;1.70;;;33.60;36.90;;;;;;21031240;28;20791;-72
2022/08/04 15:00:26;;;;;;;3.75;1.70;;;33.60;37.10;;;;;;20995475;28;20219;-74
2022/08/04 15:10:28;;;;;;;1.92;1.77;;;35.90;35.60;;;;;;21001330;28;20227;-71
2022/08/04 15:20:30;;;;;;;5.40;1.73;;;34.50;36.50;;;;;;21000628;28;20203;-70
2022/08/04 15:30:33;;;;;;;2.15;1.83;;;33.50;37.40;;;;;;21001671;28;20278;-70
2022/08/04 15:40:50;;;;;;;3.05;1.85;;;33.00;37.70;;;;;;20999978;28;20221;-71
2022/08/04 15:50:54;;;;;;;2.30;2.10;;;32.60;38.40;;;;;;20999127;28;20231;-72
2022/08/04 16:00:59;;;;;;;3.15;1.85;;;32.50;38.90;;;;;;20998525;28;20663;-72
2022/08/04 16:11:01;;;;;;;1.98;1.77;;;32.60;38.60;;;;;;20997845;28;20211;-72
2022/08/04 16:21:06;;;;;;;5.88;1.80;;;32.60;38.90;;;;;;20997919;28;20230;-72
2022/08/04 16:31:12;;;;;;;2.55;2.35;;;32.60;38.80;;;;;;20997212;28;20203;-72
2022/08/04 16:41:37;;;;;;;2.28;1.80;;;32.70;38.00;;;;;;20996339;28;20237;-72
2022/08/04 16:51:39;;;;;;;3.15;1.70;;;32.90;37.60;;;;;;20995477;28;20239;-72
2022/08/04 17:01:46;;;;;;;2.78;1.80;;;32.80;37.80;;;;;;20995301;28;20234;-71
2022/08/04 17:11:48;;;;;;;5.47;4.97;;;32.90;37.80;;;;;;20994805;28;20214;-71
2022/08/04 17:21:51;;;;;;;6.25;5.65;;;32.70;38.10;;;;;;20994383;28;20241;-71
2022/08/04 17:31:53;;;;;;;3.10;2.80;;;32.60;38.20;;;;;;20976472;28;20207;-72
2022/08/04 17:41:56;;;;;;;4.65;3.70;;;32.60;38.10;;;;;;20994078;28;20245;-71
2022/08/04 17:52:01;;;;;;;3.72;2.50;;;32.50;38.30;;;;;;20993109;28;20246;-71
2022/08/04 18:02:12;;;;;;;2.75;2.55;;;32.30;38.70;;;;;;20992798;28;20241;-72
2022/08/04 18:12:21;;;;;;;5.50;4.97;;;32.20;38.70;;;;;;20991747;28;20237;-71
2022/08/04 18:22:25;;;;;;;2.22;2.00;;;31.90;39.60;;;;;;20999739;28;20588;-71
2022/08/04 18:32:29;;;;;;;6.43;2.50;;;31.60;40.50;;;;;;20989668;28;20239;-71
2022/08/04 18:42:35;;;;;;;8.20;2.47;;;31.30;41.30;;;;;;21004762;28;20333;-72
2022/08/04 18:52:38;;;;;;;23.00;19.30;;;31.00;42.80;;;;;;21005338;28;20235;-71
2022/08/04 19:02:46;;;;;;;7.18;3.60;;;30.70;43.30;;;;;;20927657;28;20263;-71
2022/08/04 19:12:48;;;;;;;5.82;2.90;;;30.40;44.00;;;;;;20926930;28;20291;-73
2022/08/04 19:22:50;;;;;;;5.05;2.80;;;30.20;44.70;;;;;;21002744;28;20239;-70
2022/08/04 19:33:12;;;;;;;12.00;3.63;;;29.90;45.40;;;;;;21001462;28;20210;-70
2022/08/04 19:43:18;;;;;;;5.60;3.22;;;29.70;46.90;;;;;;21001124;28;20231;-69
2022/08/04 19:53:20;;;;;;;5.68;3.20;;;29.40;47.40;;;;;;20963262;28;20314;-71
2022/08/04 20:03:38;;;;;;;5.15;4.00;;;29.20;48.00;;;;;;20998338;28;20231;-70
2022/08/04 20:14:00;;;;;;;4.23;3.23;;;28.90;48.60;;;;;;20998543;28;20677;-73
2022/08/04 20:24:03;;;;;;;8.70;3.00;;;28.70;49.20;;;;;;20997210;28;20271;-72
2022/08/04 20:34:25;;;;;;;4.90;4.00;;;28.50;49.50;;;;;;20998251;28;20663;-73
2022/08/04 20:44:26;;;;;;;4.43;3.10;;;28.30;49.70;;;;;;20979241;28;20231;-73
2022/08/04 20:54:28;;;;;;;4.60;3.23;;;28.10;49.90;;;;;;20946940;28;20235;-72
2022/08/04 21:04:31;;;;;;;6.63;4.07;;;27.90;50.50;;;;;;20909577;28;20460;-71
2022/08/04 21:14:34;;;;;;;6.93;4.50;;;28.00;51.80;;;;;;20912138;28;20291;-71
2022/08/04 21:24:36;;;;;;;6.70;3.80;;;27.60;52.00;;;;;;20911011;28;20278;-70
2022/08/04 21:34:40;;;;;;;13.33;3.80;;;27.40;52.90;;;;;;20908823;28;20207;-71
2022/08/04 21:44:42;;;;;;;7.97;3.33;;;27.20;53.00;;;;;;20990145;28;20768;-71
2022/08/04 21:54:45;;;;;;;7.13;3.30;;;27.00;53.70;;;;;;20999763;28;20266;-71
2022/08/04 22:04:54;;;;;;;5.87;3.00;;;26.80;54.10;;;;;;21008888;28;20318;-70
2022/08/04 22:14:57;;;;;;;14.50;3.30;;;26.60;54.70;;;;;;21001061;28;20666;-71
2022/08/04 22:25:03;;;;;;;4.00;3.00;;;26.50;55.70;;;;;;20921654;28;20293;-72
2022/08/04 22:35:15;;;;;;;5.10;3.27;;;26.30;56.40;;;;;;20923006;28;20208;-71
2022/08/04 22:45:42;;;;;;;6.20;3.73;;;26.00;57.00;;;;;;20922638;28;20246;-71
2022/08/04 22:55:45;;;;;;;4.60;2.93;;;25.90;57.80;;;;;;20922699;28;20213;-71
2022/08/04 23:06:09;;;;;;;3.03;2.70;;;25.60;58.00;;;;;;20921316;28;20243;-72
2022/08/04 23:16:12;;;;;;;3.27;2.93;;;25.30;58.40;;;;;;20921073;28;20246;-71
2022/08/04 23:26:15;;;;;;;4.00;3.00;;;25.20;58.60;;;;;;20903177;28;20594;-71
2022/08/04 23:36:17;;;;;;;8.73;3.37;;;25.10;58.90;;;;;;20901325;28;20600;-71
2022/08/04 23:46:19;;;;;;;8.50;3.27;;;25.10;59.20;;;;;;20933629;28;20232;-71
2022/08/04 23:56:21;;;;;;;8.43;3.10;;;25.10;59.20;;;;;;20943715;28;20215;-71
